90WI weather

Heritage Acres Airport
Laona, Wisconsin, United States

Public forecast

Using degrees Fahrenheit for public forecast. Weather courtesy of forecast.io.

Closest aviation weather report (METAR) to Heritage Acres Airport

Closest report is Ford Airport, 28.9 nm (53.5 km) ENE. Retrieved 2019/10/23 23:54 UTC (55 minutes ago):

KIMT 232354Z AUTO 28004KT 10SM FEW037 BKN046 06/00 A2989 RMK AO2 SLP133 T00560000 10083 20056 53031

Closest aviation forecast (TAF) to Heritage Acres Airport

Closest forecast is Rhinelander Oneida County Airport, 32.1 nm (59.4 km) W. Retrieved 2019-10-24 00:30 UTC (19 minutes ago):

TAF KRHI 232328Z 2400/2424 28007KT P6SM VCSH BKN025 OVC035 FM240300 28005KT P6SM BKN025 FM241000 28006KT P6SM OVC014 FM241700 28008KT P6SM BKN025 FM242200 27005KT P6SM BKN035